Time;durP1;ratioP1;P1;durP2;ratioP2;P2;SDS_P1;SDS_P2;PMS_P1;PMS_P2;Temp;Humidity;BMP_temperature;BMP_pressure;BME280_temperature;BME280_humidity;BME280_pressure;Samples;Min_cycle;Max_cycle;Signal;HPM_P1;HPM_P2
2021/05/05 00:01:54;;;;;;;11.68;2.78;;;8.20;99.90;;;7.74;76.48;100931.44;4055350;29;20100;-72
2021/05/05 00:03:54;;;;;;;;;;;8.10;99.90;;;7.79;77.09;100939.75;4040484;29;20033;-72
2021/05/05 00:05:57;;;;;;;11.23;4.05;;;8.10;99.90;;;7.80;76.85;100936.19;4041424;29;19934;-72
2021/05/05 00:07:57;;;;;;;10.88;4.35;;;8.10;99.90;;;7.82;76.57;100926.34;4041055;29;20040;-72
2021/05/05 00:09:58;;;;;;;13.10;2.95;;;8.00;99.90;;;8.04;75.12;100929.72;4040185;29;20025;-72
2021/05/05 00:11:59;;;;;;;10.30;3.70;;;8.10;99.90;;;7.84;75.48;100920.16;4041233;29;20048;-72
2021/05/05 00:14:00;;;;;;;11.55;2.60;;;8.20;99.90;;;8.06;75.27;100938.34;4041307;29;20033;-72
2021/05/05 00:16:04;;;;;;;9.63;2.92;;;8.10;99.90;;;8.15;74.77;100940.16;4041324;29;20081;-72
2021/05/05 00:18:05;;;;;;;9.88;3.03;;;8.30;99.90;;;8.14;75.06;100934.06;4041334;29;20039;-72
2021/05/05 00:20:08;;;;;;;8.90;2.63;;;8.30;99.90;;;8.00;75.78;100928.38;4041045;29;20029;-72
2021/05/05 00:22:09;;;;;;;11.38;3.03;;;8.30;99.90;;;8.08;74.74;100941.66;4040082;29;20033;-72
2021/05/05 00:24:11;;;;;;;8.88;2.58;;;8.30;99.90;;;8.08;75.61;100934.59;4041294;29;20049;-72
2021/05/05 00:26:12;;;;;;;9.95;2.90;;;8.30;99.90;;;7.99;76.50;100940.66;4060918;29;20559;-72
2021/05/05 00:28:13;;;;;;;11.93;2.80;;;8.30;99.90;;;7.96;75.44;100935.69;4043074;29;20047;-72
2021/05/05 00:30:16;;;;;;;12.70;3.17;;;8.20;99.90;;;7.85;76.32;100925.28;4054053;29;20045;-71
2021/05/05 00:32:17;;;;;;;15.30;3.08;;;8.20;99.90;;;8.08;74.80;100925.88;4048194;29;20044;-72
2021/05/05 00:34:17;;;;;;;9.63;2.65;;;8.20;99.90;;;8.17;75.98;100944.28;4041164;29;20499;-72
2021/05/05 00:36:18;;;;;;;8.90;2.70;;;8.30;99.90;;;8.00;76.32;100944.13;4052077;29;20043;-72
2021/05/05 00:38:19;;;;;;;14.77;3.65;;;8.20;99.90;;;7.91;76.11;100934.41;4041017;29;20062;-72
2021/05/05 00:40:21;;;;;;;8.48;3.03;;;8.10;99.90;;;7.79;77.24;100931.88;4041146;29;20057;-72
2021/05/05 00:42:23;;;;;;;9.73;3.10;;;8.10;99.90;;;7.84;77.03;100943.78;4040986;29;20061;-72
2021/05/05 00:44:24;;;;;;;10.60;2.80;;;8.10;99.90;;;7.90;76.25;100948.50;4040942;29;20033;-72
2021/05/05 00:46:25;;;;;;;11.45;2.85;;;8.20;99.90;;;7.78;76.71;100946.00;4041160;29;20035;-72
2021/05/05 00:48:28;;;;;;;7.97;2.25;;;8.10;99.90;;;7.72;77.18;100945.69;4040946;29;20037;-72
2021/05/05 00:50:29;;;;;;;10.30;2.85;;;8.10;99.90;;;7.79;77.01;100957.34;4055113;29;20167;-71
2021/05/05 00:52:30;;;;;;;7.35;2.45;;;8.10;99.90;;;7.75;77.17;100948.88;4040529;29;20048;-72
2021/05/05 00:54:31;;;;;;;8.57;3.20;;;8.00;99.90;;;7.72;77.54;100943.06;4041035;29;20485;-72
2021/05/05 00:56:32;;;;;;;8.88;3.20;;;8.00;99.90;;;7.65;77.46;100944.53;4039828;29;20081;-72
2021/05/05 00:58:34;;;;;;;8.68;2.88;;;8.00;99.90;;;7.64;78.54;100938.47;4039763;29;20089;-72
2021/05/05 01:00:35;;;;;;;8.60;2.58;;;7.90;99.90;;;7.74;77.20;100939.34;4039558;29;20040;-71
2021/05/05 01:02:37;;;;;;;9.63;3.13;;;8.00;99.90;;;7.73;77.89;100934.22;4039780;29;20037;-72
2021/05/05 01:04:39;;;;;;;9.50;2.58;;;8.00;99.90;;;7.93;77.03;100953.50;4041061;29;20037;-72
2021/05/05 01:06:40;;;;;;;16.42;3.45;;;7.90;99.90;;;7.84;77.36;100955.13;4040909;29;20033;-72
2021/05/05 01:08:42;;;;;;;9.23;3.50;;;8.00;99.90;;;7.85;76.71;100945.47;4040666;29;20085;-72
2021/05/05 01:10:45;;;;;;;5.78;2.30;;;8.00;99.90;;;7.77;76.81;100949.56;4039763;29;20084;-72
2021/05/05 01:12:45;;;;;;;15.40;2.83;;;8.00;99.90;;;7.72;77.50;100943.91;4039804;29;20037;-72
2021/05/05 01:14:46;;;;;;;5.75;2.60;;;7.90;99.90;;;7.79;76.11;100942.38;4040850;29;20039;-72
2021/05/05 01:16:49;;;;;;;7.68;2.50;;;7.90;99.90;;;7.77;76.40;100957.44;4039643;29;20576;-72
2021/05/05 01:18:51;;;;;;;10.35;2.55;;;8.00;99.90;;;7.78;76.78;100950.41;4039740;29;20064;-72
2021/05/05 01:20:57;;;;;;;5.97;2.30;;;7.90;99.90;;;7.62;76.82;100945.63;4039686;29;20060;-72
2021/05/05 01:22:59;;;;;;;12.77;2.60;;;7.90;99.90;;;7.67;76.72;100953.13;4054971;29;20571;-72
2021/05/05 01:25:00;;;;;;;9.50;4.55;;;7.90;99.90;;;7.55;77.37;100949.78;4039555;29;20048;-72
2021/05/05 01:27:04;;;;;;;11.07;2.95;;;7.80;99.90;;;7.58;77.47;100939.00;4039717;29;20029;-72
2021/05/05 01:29:06;;;;;;;11.18;2.97;;;7.80;99.90;;;7.67;76.79;100945.25;4044045;29;20528;-72
2021/05/05 01:31:11;;;;;;;9.85;2.85;;;7.80;99.90;;;7.66;76.36;100947.06;4054720;29;20041;-72
2021/05/05 01:33:14;;;;;;;8.73;2.85;;;7.90;99.90;;;7.55;76.40;100943.69;4026112;29;20039;-72
2021/05/05 01:35:19;;;;;;;10.38;3.13;;;7.80;99.90;;;7.41;78.07;100944.84;4047249;29;20088;-72
2021/05/05 01:37:20;;;;;;;12.45;3.28;;;7.80;99.90;;;7.55;76.48;100949.78;4063783;29;20039;-73
2021/05/05 01:39:21;;;;;;;11.95;2.90;;;7.80;99.90;;;7.49;78.43;100949.47;4073201;29;20024;-73
2021/05/05 01:41:23;;;;;;;8.77;2.83;;;7.70;99.90;;;7.50;76.66;100951.94;4057412;29;20503;-72
2021/05/05 01:43:24;;;;;;;9.48;2.85;;;7.70;99.90;;;7.46;77.31;100941.84;4057693;29;20032;-72
2021/05/05 01:45:25;;;;;;;5.93;2.83;;;7.70;99.90;;;7.40;77.91;100940.59;4058838;29;20036;-72
2021/05/05 01:47:26;;;;;;;11.30;2.92;;;7.70;99.90;;;7.31;77.53;100944.00;4057711;29;20613;-72
2021/05/05 01:49:27;;;;;;;8.95;2.92;;;7.70;99.90;;;7.51;76.81;100955.41;4058719;29;20053;-71
2021/05/05 01:51:28;;;;;;;7.70;2.85;;;7.70;99.90;;;7.48;77.09;100948.63;4058820;29;20031;-72
2021/05/05 01:53:29;;;;;;;8.52;2.65;;;7.70;99.90;;;7.31;77.42;100951.88;4057483;29;20036;-72
2021/05/05 01:55:30;;;;;;;6.88;3.00;;;7.70;99.90;;;7.42;77.41;100964.91;4057545;29;20033;-72
2021/05/05 01:57:38;;;;;;;12.65;3.95;;;7.60;99.90;;;7.36;77.82;100949.66;4058560;29;20111;-72
2021/05/05 01:59:39;;;;;;;11.80;3.95;;;7.60;99.90;;;7.46;77.54;100953.19;4057451;29;20088;-72
2021/05/05 02:01:40;;;;;;;6.22;2.58;;;7.60;99.90;;;7.47;76.85;100949.56;4058558;29;20036;-72
2021/05/05 02:03:41;;;;;;;5.78;2.45;;;7.60;99.90;;;7.50;76.92;100954.56;4058513;29;20032;-72
2021/05/05 02:05:42;;;;;;;8.57;2.83;;;7.60;99.90;;;7.50;77.38;100954.56;4058543;29;20504;-72
2021/05/05 02:07:43;;;;;;;13.40;2.65;;;7.60;99.90;;;7.55;77.00;100957.66;4058210;29;20055;-72
2021/05/05 02:09:44;;;;;;;10.65;3.42;;;7.60;99.90;;;7.44;77.37;100955.09;4058515;29;20055;-72
2021/05/05 02:11:44;;;;;;;9.73;2.45;;;7.60;99.90;;;7.30;78.19;100955.44;4057152;29;20036;-72
2021/05/05 02:13:45;;;;;;;9.77;3.80;;;7.50;99.90;;;7.34;78.16;100962.09;4058329;29;20033;-72
2021/05/05 02:15:46;;;;;;;10.77;2.47;;;7.60;99.90;;;7.17;78.41;100949.53;4058442;29;20033;-72
2021/05/05 02:17:51;;;;;;;7.65;3.33;;;7.50;99.90;;;7.36;77.67;100954.91;4057286;29;20401;-72
2021/05/05 02:19:52;;;;;;;11.05;3.88;;;7.50;99.90;;;7.08;78.33;100961.66;4057188;29;20456;-72
2021/05/05 02:21:53;;;;;;;9.07;2.70;;;7.50;99.90;;;7.15;79.15;100961.97;4057919;29;20040;-72
2021/05/05 02:23:54;;;;;;;10.02;3.53;;;7.40;99.90;;;7.15;79.17;100962.81;4058338;29;20100;-72
2021/05/05 02:25:55;;;;;;;11.32;3.20;;;7.30;99.90;;;7.11;78.94;100952.69;4058407;29;20477;-72
2021/05/05 02:27:56;;;;;;;11.93;3.15;;;7.40;99.90;;;7.01;79.12;100950.03;4058189;29;20028;-72
2021/05/05 02:29:57;;;;;;;8.50;3.85;;;7.30;99.90;;;7.09;78.48;100965.09;4057767;29;20106;-72
2021/05/05 02:31:59;;;;;;;12.60;3.75;;;7.30;99.90;;;7.03;78.91;100944.63;4053242;29;20524;-72
2021/05/05 02:34:00;;;;;;;6.38;2.53;;;7.30;99.90;;;7.15;78.50;100954.09;4041467;29;20089;-72
2021/05/05 02:36:01;;;;;;;9.88;2.53;;;7.40;99.90;;;7.03;78.21;100934.16;4050858;29;20081;-72
2021/05/05 02:38:02;;;;;;;6.00;3.15;;;7.30;99.90;;;6.98;78.79;100944.19;4045307;29;20503;-71
2021/05/05 02:40:08;;;;;;;9.52;3.25;;;7.30;99.90;;;6.97;78.70;100948.59;4041341;29;20531;-72
2021/05/05 02:42:15;;;;;;;10.18;4.70;;;7.20;99.90;;;6.95;78.77;100939.22;4041386;29;20100;-72
2021/05/05 02:44:17;;;;;;;10.05;3.85;;;7.30;99.90;;;7.01;78.89;100946.56;4040928;29;20037;-72
2021/05/05 02:46:18;;;;;;;11.45;3.00;;;7.30;99.90;;;7.11;78.63;100956.16;4040504;29;20033;-72
2021/05/05 02:48:18;;;;;;;12.27;3.05;;;7.30;99.90;;;7.02;78.23;100940.34;4042452;29;20038;-72
2021/05/05 02:50:19;;;;;;;9.77;3.95;;;7.30;99.90;;;7.09;78.59;100959.88;4041206;29;20108;-72
2021/05/05 02:52:20;;;;;;;7.47;2.67;;;7.30;99.90;;;7.10;78.59;100958.91;4042095;29;20493;-72
2021/05/05 02:54:21;;;;;;;9.50;2.95;;;7.20;99.90;;;7.09;78.50;100952.00;4042168;29;20108;-72
2021/05/05 02:56:22;;;;;;;14.20;3.22;;;7.30;99.90;;;7.10;78.60;100944.00;4041268;29;20035;-72
2021/05/05 02:58:23;;;;;;;9.43;2.67;;;7.30;99.90;;;6.99;78.93;100945.88;4041254;29;20036;-72
2021/05/05 03:00:24;;;;;;;24.20;2.85;;;7.30;99.90;;;7.02;79.42;100953.44;4042214;29;20084;-72
2021/05/05 03:02:26;;;;;;;8.02;2.75;;;7.30;99.90;;;6.97;79.07;100953.00;4040984;29;20033;-72
2021/05/05 03:04:27;;;;;;;8.00;2.75;;;7.20;99.90;;;6.96;78.44;100930.41;4041060;29;20033;-72
2021/05/05 03:06:29;;;;;;;7.30;3.78;;;7.30;99.90;;;7.09;79.25;100952.00;4040818;29;20040;-72
2021/05/05 03:08:31;;;;;;;10.13;3.33;;;7.30;99.90;;;6.94;78.79;100945.41;4041932;29;20085;-72
2021/05/05 03:10:32;;;;;;;9.20;3.55;;;7.30;99.90;;;7.01;78.92;100947.41;4041958;29;20069;-72
2021/05/05 03:12:34;;;;;;;8.95;2.85;;;7.30;99.90;;;7.03;79.54;100948.09;4041014;29;20097;-72
2021/05/05 03:14:34;;;;;;;7.47;2.47;;;7.20;99.90;;;6.93;79.61;100955.06;4040976;29;20756;-72
2021/05/05 03:16:36;;;;;;;9.80;3.42;;;7.30;99.90;;;6.91;79.79;100943.88;4040935;29;20033;-72
2021/05/05 03:18:37;;;;;;;8.15;3.00;;;7.20;99.90;;;6.89;79.69;100956.28;4042017;29;20040;-72
2021/05/05 03:20:38;;;;;;;10.70;2.92;;;7.20;99.90;;;6.89;79.67;100951.03;4040943;29;20026;-72
2021/05/05 03:22:39;;;;;;;7.57;2.97;;;7.10;99.90;;;6.69;79.35;100955.28;4041884;29;20025;-72
2021/05/05 03:24:40;;;;;;;10.20;3.00;;;7.00;99.90;;;6.74;80.41;100951.47;4040807;29;20512;-72
2021/05/05 03:26:41;;;;;;;8.13;3.05;;;7.00;99.90;;;6.86;79.78;100958.31;4041734;29;20066;-72
2021/05/05 03:28:42;;;;;;;12.48;3.22;;;7.00;99.90;;;6.83;79.80;100961.19;4043322;29;20021;-72
2021/05/05 03:30:43;;;;;;;10.88;3.17;;;7.00;99.90;;;6.86;79.98;100963.56;4056448;29;20065;-72
2021/05/05 03:32:43;;;;;;;5.68;2.55;;;7.00;99.90;;;6.65;80.35;100951.28;4045359;29;20089;-72
2021/05/05 03:34:44;;;;;;;6.30;2.33;;;7.00;99.90;;;6.63;81.45;100963.66;4040387;29;20044;-72
2021/05/05 03:36:46;;;;;;;11.98;3.20;;;7.00;99.90;;;6.65;80.17;100967.00;4051698;29;20029;-72
2021/05/05 03:38:47;;;;;;;8.93;2.40;;;6.90;99.90;;;6.56;81.16;100959.06;4041729;29;20040;-72
2021/05/05 03:40:48;;;;;;;6.85;2.92;;;6.80;99.90;;;6.40;80.59;100941.13;4041606;29;20033;-72
2021/05/05 03:42:49;;;;;;;12.30;3.00;;;6.90;99.90;;;6.43;81.35;100940.88;4041548;29;20048;-72
2021/05/05 03:44:50;;;;;;;6.03;2.80;;;6.90;99.90;;;6.42;81.14;100947.06;4041686;29;20029;-72
2021/05/05 03:46:52;;;;;;;14.10;3.33;;;6.80;99.90;;;6.60;80.02;100963.09;4041651;29;20040;-72
2021/05/05 03:48:53;;;;;;;13.07;3.08;;;6.80;99.90;;;6.49;81.53;100953.47;4041549;29;20029;-72
2021/05/05 03:50:56;;;;;;;11.27;3.20;;;6.80;99.90;;;6.58;81.67;100965.84;4041409;29;20037;-72
2021/05/05 03:52:57;;;;;;;9.57;2.67;;;6.70;99.90;;;6.50;80.97;100959.56;4040253;29;20524;-72
2021/05/05 03:54:57;;;;;;;12.35;3.28;;;6.80;99.90;;;6.45;81.55;100957.28;4024913;29;20078;-72
2021/05/05 03:56:58;;;;;;;13.38;3.15;;;6.80;99.90;;;6.52;81.05;100966.34;4041240;29;20497;-72
2021/05/05 03:58:59;;;;;;;9.23;2.60;;;6.80;99.90;;;6.57;82.36;100972.03;4041388;29;20056;-72
2021/05/05 04:01:00;;;;;;;9.60;2.97;;;6.70;99.90;;;6.63;81.17;100974.13;4041239;29;20029;-72
2021/05/05 04:03:01;;;;;;;8.23;3.22;;;6.80;99.90;;;6.69;79.93;100968.41;4041428;29;20033;-72
2021/05/05 04:05:04;;;;;;;8.43;3.58;;;6.80;99.90;;;6.50;81.18;100976.13;4040138;29;20032;-72
2021/05/05 04:07:05;;;;;;;11.82;4.22;;;6.90;99.90;;;6.62;81.20;100990.84;4055326;29;20029;-72
2021/05/05 04:09:06;;;;;;;13.63;2.90;;;6.90;99.90;;;6.53;81.00;100985.50;4041600;29;20032;-72
2021/05/05 04:11:07;;;;;;;9.48;2.80;;;6.80;99.90;;;6.51;80.89;100979.56;4041389;29;20037;-72
2021/05/05 04:13:08;;;;;;;5.90;2.40;;;6.80;99.90;;;6.45;81.73;100998.41;4041348;29;20025;-72
2021/05/05 04:15:10;;;;;;;9.48;2.90;;;6.80;99.90;;;6.24;81.95;100974.75;4041296;29;20025;-72
2021/05/05 04:17:10;;;;;;;12.85;3.40;;;6.70;99.90;;;6.44;81.24;100997.56;4041350;29;20021;-72
2021/05/05 04:19:11;;;;;;;9.45;3.95;;;6.70;99.90;;;6.39;81.90;100994.47;4041190;29;20060;-72
2021/05/05 04:21:12;;;;;;;7.97;2.80;;;6.70;99.90;;;6.34;81.31;100991.38;4039985;29;20043;-72
2021/05/05 04:23:13;;;;;;;9.35;3.10;;;6.70;99.90;;;6.27;82.23;100990.25;4039800;29;20556;-72
2021/05/05 04:25:17;;;;;;;14.60;4.00;;;6.70;99.90;;;6.21;81.85;100993.34;4055536;29;20036;-72
2021/05/05 04:27:19;;;;;;;8.17;2.83;;;6.60;99.90;;;6.25;82.33;100996.53;4040241;29;20029;-72
2021/05/05 04:29:20;;;;;;;6.95;2.78;;;6.60;99.90;;;6.27;82.49;100992.84;4046097;29;20032;-72
2021/05/05 04:31:22;;;;;;;10.25;3.05;;;6.70;99.90;;;6.18;83.29;101008.47;4055048;29;20029;-72
2021/05/05 04:33:23;;;;;;;13.27;3.83;;;6.50;99.90;;;6.25;82.78;100996.53;4052277;29;20060;-71
2021/05/05 04:35:24;;;;;;;5.85;3.33;;;6.60;99.90;;;6.41;82.21;101007.47;4041169;29;20036;-72
2021/05/05 04:37:25;;;;;;;8.75;3.28;;;6.60;99.90;;;6.39;82.26;100991.84;4052367;29;20493;-72
2021/05/05 04:39:26;;;;;;;11.05;2.88;;;6.70;99.90;;;6.45;82.38;101014.94;4039998;29;20035;-72
2021/05/05 04:41:29;;;;;;;14.02;4.00;;;6.70;99.90;;;6.55;81.21;101020.28;4040988;29;20084;-72
2021/05/05 04:43:29;;;;;;;7.20;2.85;;;6.70;99.90;;;6.47;82.32;101023.53;4041098;29;20482;-72
2021/05/05 04:45:30;;;;;;;8.45;2.95;;;6.70;99.90;;;6.46;82.63;101015.78;4041127;29;20108;-72
2021/05/05 04:47:34;;;;;;;8.93;2.95;;;6.70;99.90;;;6.45;82.63;101020.19;4024368;29;20494;-71
2021/05/05 04:49:34;;;;;;;7.72;3.17;;;6.70;99.90;;;6.57;81.37;101024.44;4055170;29;20040;-72
2021/05/05 04:51:37;;;;;;;8.18;2.63;;;6.80;99.90;;;6.43;81.32;101011.63;4055057;29;20072;-71
2021/05/05 04:53:38;;;;;;;11.05;4.10;;;6.80;99.90;;;6.55;81.38;101030.75;4039911;29;20478;-71
2021/05/05 04:55:39;;;;;;;10.13;2.75;;;6.80;99.90;;;6.58;81.58;101031.34;4039618;29;20033;-72
2021/05/05 04:57:40;;;;;;;12.40;4.13;;;6.80;99.90;;;6.52;82.30;101036.25;4039657;29;20041;-72
2021/05/05 04:59:41;;;;;;;9.88;3.13;;;6.80;99.90;;;6.50;81.86;101035.53;4041005;29;20037;-72
2021/05/05 05:01:41;;;;;;;12.02;3.53;;;6.80;99.90;;;6.42;82.04;101030.91;4040876;29;20405;-71
2021/05/05 05:03:42;;;;;;;10.23;3.55;;;6.80;99.90;;;6.48;82.29;101043.53;4040899;29;20029;-72
2021/05/05 05:05:43;;;;;;;11.93;3.58;;;6.80;99.90;;;6.61;82.43;101046.84;4040866;29;20033;-72
2021/05/05 05:07:44;;;;;;;6.50;3.30;;;6.80;99.90;;;6.76;80.29;101041.31;4040679;29;20028;-72
2021/05/05 05:09:45;;;;;;;15.30;3.38;;;6.90;99.90;;;6.65;80.58;101027.28;4043572;29;20044;-72
2021/05/05 05:11:46;;;;;;;8.70;2.45;;;6.90;99.90;;;6.88;80.11;101046.41;4043742;29;20048;-72
2021/05/05 05:13:47;;;;;;;6.45;2.70;;;7.00;99.90;;;6.96;79.06;101040.53;4043707;29;20427;-72
2021/05/05 05:15:48;;;;;;;8.38;2.72;;;7.10;99.90;;;6.88;79.16;101050.81;4032779;29;20029;-72
2021/05/05 05:17:49;;;;;;;8.73;3.17;;;7.20;99.90;;;6.88;79.64;101061.28;4056915;29;20504;-72
2021/05/05 05:19:50;;;;;;;6.70;3.05;;;7.10;99.90;;;6.88;80.17;101050.81;4058745;29;20052;-72
2021/05/05 05:21:51;;;;;;;10.63;2.85;;;7.20;99.90;;;7.07;79.18;101054.44;4056268;29;20028;-72
2021/05/05 05:23:52;;;;;;;10.48;3.05;;;7.30;99.90;;;6.95;79.01;101062.47;4059137;29;20028;-72
2021/05/05 05:25:53;;;;;;;7.65;2.75;;;7.30;99.90;;;6.78;79.19;101052.53;4057985;29;20037;-72
2021/05/05 05:27:54;;;;;;;9.05;2.88;;;7.30;99.90;;;6.90;80.40;101062.00;4059109;29;20080;-72
2021/05/05 05:29:56;;;;;;;9.68;2.92;;;7.30;99.90;;;6.88;79.64;101058.66;4057728;29;20567;-72
2021/05/05 05:31:57;;;;;;;5.55;2.53;;;7.30;99.90;;;6.67;79.72;101054.22;4054437;29;20031;-73
2021/05/05 05:33:57;;;;;;;6.68;2.90;;;7.20;99.90;;;6.81;79.49;101068.00;4043507;29;20033;-73
2021/05/05 05:35:58;;;;;;;11.63;3.13;;;7.20;99.90;;;6.80;80.25;101076.81;4051225;29;20108;-73
2021/05/05 05:37:59;;;;;;;8.18;3.08;;;7.20;99.90;;;6.92;79.25;101078.44;4047069;29;20093;-72
2021/05/05 05:40:00;;;;;;;8.27;3.10;;;7.30;99.90;;;6.91;79.62;101082.84;4043231;29;20055;-72
2021/05/05 05:42:01;;;;;;;11.27;3.30;;;7.30;99.90;;;7.08;78.71;101082.31;4043393;29;20033;-72
2021/05/05 05:44:04;;;;;;;12.30;3.10;;;7.30;99.90;;;7.17;78.17;101093.84;4043273;29;20081;-72
2021/05/05 05:46:05;;;;;;;10.35;2.22;;;7.40;99.90;;;7.17;78.33;101093.84;4047442;29;20119;-73
2021/05/05 05:48:06;;;;;;;11.82;3.35;;;7.50;99.90;;;7.19;78.11;101105.06;4054381;29;20021;-74
2021/05/05 05:50:09;;;;;;;8.00;3.03;;;7.50;99.90;;;7.16;78.83;101092.19;4055753;29;20033;-73
2021/05/05 05:52:10;;;;;;;8.80;2.55;;;7.50;99.90;;;7.20;79.11;101104.91;4053624;29;20043;-71
2021/05/05 05:54:11;;;;;;;10.45;4.00;;;7.50;99.90;;;7.45;77.20;101106.38;4057946;29;20107;-72
2021/05/05 05:56:12;;;;;;;9.68;2.75;;;7.70;99.90;;;7.38;77.29;101096.50;4057638;29;20050;-72
2021/05/05 05:58:13;;;;;;;9.63;2.50;;;7.70;99.90;;;7.31;78.68;101101.44;4058109;29;20057;-72
2021/05/05 06:00:17;;;;;;;9.43;3.33;;;7.70;99.90;;;7.51;77.84;101113.72;4057859;29;20076;-72
2021/05/05 06:02:18;;;;;;;;;;;7.80;99.90;;;7.55;77.18;101099.41;4058284;29;20032;-74
2021/05/05 06:04:19;;;;;;;6.47;2.90;;;7.90;99.90;;;7.50;76.67;101096.31;4058290;29;19955;-73
2021/05/05 06:06:20;;;;;;;7.07;2.55;;;7.90;99.90;;;7.68;76.93;101100.03;4056893;29;20033;-72
2021/05/05 06:08:21;;;;;;;9.15;2.80;;;8.00;99.90;;;7.74;76.71;101107.38;4057919;29;20056;-73
2021/05/05 06:10:22;;;;;;;8.48;2.80;;;8.00;99.90;;;7.73;76.11;101116.25;4057826;29;20036;-73
2021/05/05 06:12:23;;;;;;;11.15;3.50;;;8.10;99.90;;;7.74;76.32;101112.63;4056533;29;20120;-74
2021/05/05 06:14:24;;;;;;;14.18;3.10;;;8.20;99.90;;;7.93;75.33;101104.03;4049549;29;20088;-70
2021/05/05 06:16:25;;;;;;;9.00;3.30;;;8.20;99.90;;;7.96;75.58;101119.53;4042394;29;20033;-70
2021/05/05 06:18:26;;;;;;;8.18;2.50;;;8.30;99.90;;;8.01;76.32;101125.22;4041704;29;20033;-70
2021/05/05 06:20:27;;;;;;;7.97;3.30;;;8.40;99.90;;;8.02;76.14;101126.91;4042606;29;20033;-70
2021/05/05 06:22:28;;;;;;;8.57;2.38;;;8.40;99.90;;;8.07;76.08;101129.13;4042361;29;20067;-70
2021/05/05 06:24:29;;;;;;;6.63;3.03;;;8.50;99.90;;;8.13;75.89;101136.50;4042323;29;20029;-70
2021/05/05 06:26:30;;;;;;;18.00;3.20;;;8.50;99.90;;;8.07;76.04;101129.13;4042491;29;20420;-70
2021/05/05 06:28:31;;;;;;;9.52;2.70;;;8.50;99.90;;;8.23;75.45;101134.75;4042665;29;20025;-70
2021/05/05 06:30:32;;;;;;;6.50;2.85;;;8.60;99.90;;;8.23;75.55;101129.50;4057750;29;20044;-70
2021/05/05 06:32:34;;;;;;;15.05;3.25;;;8.70;99.90;;;8.23;76.16;101137.38;4049066;29;20033;-70
2021/05/05 06:34:35;;;;;;;7.25;2.92;;;8.70;99.90;;;8.24;75.74;101120.66;4042697;29;20039;-70
2021/05/05 06:36:36;;;;;;;14.50;2.65;;;8.80;99.90;;;8.29;75.55;101135.09;4054421;29;20059;-70
2021/05/05 06:38:37;;;;;;;8.52;2.85;;;8.90;99.90;;;8.32;75.63;101137.47;4042589;29;20037;-70
2021/05/05 06:40:37;;;;;;;8.88;2.95;;;8.90;99.90;;;8.14;75.49;101133.75;4042414;29;20124;-70
2021/05/05 06:42:39;;;;;;;7.38;2.95;;;8.90;99.90;;;7.97;77.82;101144.88;4041364;29;20038;-70
2021/05/05 06:44:40;;;;;;;14.50;2.55;;;8.90;99.90;;;8.16;76.92;101152.00;4041116;29;20069;-70
2021/05/05 06:46:44;;;;;;;14.32;2.45;;;8.80;99.90;;;8.28;74.60;101153.63;4042299;29;20033;-70
2021/05/05 06:48:45;;;;;;;5.80;2.20;;;8.90;99.90;;;8.34;74.97;101147.84;4042355;29;20025;-70
2021/05/05 06:50:46;;;;;;;8.10;2.50;;;9.00;99.90;;;8.52;75.44;101156.78;4042372;29;20041;-70
2021/05/05 06:52:47;;;;;;;7.00;2.20;;;9.10;99.90;;;8.60;74.12;101156.13;4041937;29;20089;-70
2021/05/05 06:54:48;;;;;;;9.30;2.25;;;9.10;99.90;;;8.47;74.38;101152.88;4042353;29;20033;-70
2021/05/05 06:56:49;;;;;;;9.05;2.88;;;9.20;99.90;;;8.62;73.90;101147.13;4042162;29;20036;-70
2021/05/05 06:58:50;;;;;;;11.02;2.92;;;9.20;99.90;;;8.74;73.94;101153.09;4042016;29;20215;-70
2021/05/05 07:00:51;;;;;;;7.53;2.53;;;9.30;99.90;;;8.82;73.90;101153.25;4041869;29;20056;-70
2021/05/05 07:02:52;;;;;;;10.52;2.53;;;9.40;99.90;;;8.58;75.33;101145.72;4042148;29;20025;-70
2021/05/05 07:04:53;;;;;;;12.70;2.60;;;9.30;99.90;;;8.74;74.61;101150.47;4042034;29;20036;-70
2021/05/05 07:06:55;;;;;;;3.22;2.17;;;9.30;99.90;;;8.86;73.77;101163.41;4041992;29;20021;-70
2021/05/05 07:08:56;;;;;;;9.88;3.28;;;9.50;99.90;;;8.67;74.17;101149.34;4041967;29;20029;-70
2021/05/05 07:10:57;;;;;;;7.18;2.50;;;9.50;99.90;;;8.87;73.87;101161.56;4042135;29;20040;-73
2021/05/05 07:12:57;;;;;;;9.60;2.78;;;9.50;99.90;;;8.82;74.04;101154.09;4043286;29;20043;-74
2021/05/05 07:14:58;;;;;;;10.27;3.05;;;9.60;99.90;;;9.03;72.96;101161.91;4044670;29;20044;-74
2021/05/05 07:16:59;;;;;;;7.68;2.53;;;9.60;99.90;;;8.76;73.85;101164.31;4041371;29;20025;-74
2021/05/05 07:19:02;;;;;;;4.10;1.70;;;9.70;99.90;;;9.06;74.49;101168.69;4053083;29;20052;-75
2021/05/05 07:21:03;;;;;;;8.40;2.72;;;9.80;99.90;;;9.18;74.45;101171.06;4049272;29;20036;-75
2021/05/05 07:23:05;;;;;;;9.13;2.42;;;9.80;99.90;;;9.03;74.41;101171.59;4046288;29;20096;-75
2021/05/05 07:25:06;;;;;;;7.10;2.25;;;9.90;99.90;;;8.91;74.46;101173.50;4056042;29;20027;-73
2021/05/05 07:27:07;;;;;;;14.88;2.50;;;9.80;99.90;;;8.99;74.00;101162.31;4041415;29;20695;-74
2021/05/05 07:29:08;;;;;;;8.45;2.08;;;9.90;99.90;;;9.04;75.44;101175.91;4046111;29;20125;-74
2021/05/05 07:31:10;;;;;;;9.93;2.40;;;9.80;99.90;;;9.24;73.24;101178.41;4054431;29;20085;-74
2021/05/05 07:33:13;;;;;;;10.77;2.55;;;10.00;99.90;;;9.30;74.25;101191.03;4041515;29;20029;-74
2021/05/05 07:35:17;;;;;;;9.23;2.40;;;10.00;99.90;;;9.19;72.80;101185.06;4041498;29;20029;-74
2021/05/05 07:37:31;;;;;;;9.00;2.90;;;10.20;99.90;;;9.33;73.71;101188.13;4052467;29;20032;-74
2021/05/05 07:39:58;;;;;;;13.30;2.78;;;10.20;99.90;;;9.56;71.96;101180.78;4041654;29;20044;-74
2021/05/05 07:48:41;;;;;;;11.85;2.28;;;10.60;99.90;;;10.00;68.83;101179.38;4041770;29;20097;-74
2021/05/05 07:50:42;;;;;;;9.68;3.38;;;10.70;99.90;;;9.70;67.96;101176.91;4040469;29;20033;-74
2021/05/05 07:52:43;;;;;;;10.00;2.55;;;10.70;99.90;;;9.71;67.88;101174.13;4041131;29;20044;-74
2021/05/05 07:54:44;;;;;;;7.30;1.95;;;10.70;99.90;;;9.90;68.66;101158.31;4041285;29;20033;-74
2021/05/05 07:56:45;;;;;;;9.07;2.80;;;10.70;99.90;;;10.03;68.34;101161.44;4041326;29;20463;-74
2021/05/05 07:58:46;;;;;;;6.32;2.50;;;10.80;99.90;;;10.21;66.61;101155.50;4041483;29;20036;-74
2021/05/05 08:00:47;;;;;;;9.05;2.38;;;11.00;99.90;;;10.28;65.68;101161.84;4055384;29;20033;-74
2021/05/05 08:02:48;;;;;;;9.65;3.20;;;11.10;99.90;;;10.44;64.97;101154.16;4041355;29;20025;-74
2021/05/05 08:04:49;;;;;;;7.07;1.85;;;11.20;99.90;;;10.59;64.57;101157.97;4041408;29;20029;-74
2021/05/05 08:06:51;;;;;;;5.35;1.90;;;11.40;99.90;;;10.68;64.71;101169.47;4041135;29;20105;-74
2021/05/05 08:08:52;;;;;;;7.15;1.98;;;11.50;99.90;;;10.77;64.14;101179.97;4041132;29;20038;-74
2021/05/05 08:10:53;;;;;;;7.45;2.15;;;11.60;99.90;;;10.68;62.16;101174.72;4041205;29;20036;-74
2021/05/05 08:12:54;;;;;;;4.82;2.13;;;11.70;99.90;;;10.58;61.21;101174.78;4041142;29;20417;-74
2021/05/05 08:14:55;;;;;;;6.93;1.80;;;11.70;99.90;;;10.43;61.35;101171.78;4041098;29;20089;-74
2021/05/05 08:16:56;;;;;;;6.03;2.22;;;11.70;99.90;;;10.74;61.90;101172.34;4040973;29;20446;-74
2021/05/05 08:18:57;;;;;;;7.93;2.50;;;11.80;99.90;;;10.86;62.31;101192.28;4041298;29;20029;-74
2021/05/05 08:21:01;;;;;;;7.40;2.05;;;11.90;99.90;;;10.79;60.45;101191.19;4041079;29;20041;-74
2021/05/05 08:23:10;;;;;;;6.28;2.78;;;11.90;99.90;;;10.82;60.85;101184.78;4040879;29;20025;-74
2021/05/05 08:25:12;;;;;;;5.78;2.17;;;12.00;99.90;;;10.54;61.27;101174.22;4040922;29;20025;-74
2021/05/05 08:27:13;;;;;;;5.13;2.08;;;11.80;99.90;;;10.88;56.11;101194.78;4041050;29;20088;-74
2021/05/05 08:29:13;;;;;;;7.15;2.03;;;12.10;98.20;;;10.63;59.97;101195.47;4060620;29;20098;-74
2021/05/05 08:31:14;;;;;;;6.03;2.08;;;12.10;99.20;;;10.89;59.80;101194.63;4052456;29;20037;-74
2021/05/05 08:33:15;;;;;;;8.25;1.90;;;12.20;99.40;;;11.08;58.79;101181.31;4041635;29;20037;-74
2021/05/05 08:35:16;;;;;;;10.50;1.70;;;12.30;98.90;;;10.97;58.48;101201.81;4040087;29;20032;-74
2021/05/05 08:37:18;;;;;;;6.30;1.92;;;12.40;98.40;;;11.44;59.82;101194.56;4052143;29;20039;-74
2021/05/05 08:39:19;;;;;;;9.77;2.00;;;12.60;99.30;;;11.44;57.90;101184.00;4039746;29;20033;-74
2021/05/05 08:41:22;;;;;;;5.13;1.90;;;12.90;98.40;;;11.78;55.25;101179.72;4040695;29;20064;-74